Stolt Sanderling — 2GBH7 — position and weather

sailwx.info

Track history (hours):
 
Tides and Currents Weather Stations Pressure Air Temp Water Temp Dewpoint Dewpoint Depression Visibility Wind Speed Wind Dir Waves Ship Positions

Stolt Sanderling

Last reported at 2017-Nov-24 23:57 UTC. Time now 2017-Nov-25 00:08 UTC.
Position N 52°58' E 001°48'.

Length 91 m; draft 5.1 m.

Type: Tanker. MMSI: 235095972.

Date/timePositionNaut miles runAvg speedWind from/ knotsBaromVisibWave heightAir tempDewpointWater temp
2017-Nov-24 23:57N 52°58' E 001°48'714.6
2017-Nov-24 23:30N 53°01' E 001°38'714.6
2017-Nov-24 23:00N 53°06' E 001°29'6012.2
2017-Nov-24 18:06N 53°35' E 000°02'111.9
2017-Nov-24 17:59N 53°35' W 000°01'611.6
2017-Nov-24 17:30N 53°38' W 000°09'1 2.2
2017-Nov-24 17:00N 53°38' W 000°11'0 0.0
2017-Nov-24 04:41N 53°38' W 000°11'0 0.8
2017-Nov-24 04:28N 53°38' W 000°11'0 0.3
2017-Nov-24 04:00N 53°38' W 000°11'0 0.0
2017-Nov-24 03:30N 53°38' W 000°11'0 0.0
2017-Nov-24 03:00N 53°38' W 000°11'0 0.0
2017-Nov-24 02:30N 53°38' W 000°11'0 0.0
2017-Nov-23 13:13N 53°38' W 000°11'0 0.8
2017-Nov-23 13:00N 53°38' W 000°11'2 3.9
2017-Nov-23 12:30N 53°38' W 000°08'4 8.7
2017-Nov-23 12:00N 53°36' W 000°01'54 8.6
2017-Nov-23 05:39N 53°12' E 001°21'213.1
2017-Nov-23 05:30N 53°10' E 001°23'713.6
2017-Nov-23 05:00N 53°06' E 001°31'713.8
2017-Nov-23 04:30N 53°02' E 001°40'713.6
2017-Nov-23 04:00N 52°59' E 001°51'713.2
2017-Nov-23 03:30N 52°56' E 002°00'7911.3
2017-Nov-22 20:33N 52°05' E 003°40'311.1
2017-Nov-22 20:15N 52°05' E 003°45'311.7
2017-Nov-22 19:58N 52°04' E 003°51'4 9.4
2017-Nov-22 19:30N 52°02' E 003°57'  
2017-Nov-20 00:31N 51°05' E 004°21'0 0.0
2017-Nov-19 22:55N 51°05' E 004°21'0 0.0
2017-Nov-19 21:43N 51°05' E 004°21'0 0.0
2017-Nov-19 21:25N 51°05' E 004°21'0 0.0
2017-Nov-19 20:58N 51°05' E 004°21'0 0.0
2017-Nov-19 17:31N 51°05' E 004°21'0 0.0
2017-Nov-19 12:16N 51°05' E 004°21'0 0.0
2017-Nov-19 02:43N 51°05' E 004°21'0 0.0
2017-Nov-19 02:29N 51°05' E 004°21'2 3.4
2017-Nov-19 02:00N 51°06' E 004°19'1 2.0
2017-Nov-19 01:30N 51°07' E 004°18'2 3.9
2017-Nov-19 01:00N 51°09' E 004°20'5 9.4
2017-Nov-19 00:30N 51°13' E 004°23'4 8.3
2017-Nov-19 00:00N 51°15' E 004°18'2 3.5
2017-Nov-18 23:31N 51°17' E 004°20'0 0.6
2017-Nov-18 23:00N 51°17' E 004°20'0 0.1
2017-Nov-18 22:28N 51°17' E 004°20'0 0.0
2017-Nov-18 21:58N 51°17' E 004°20'0 0.0
2017-Nov-18 21:25N 51°17' E 004°20'0 0.0
2017-Nov-18 20:58N 51°17' E 004°20'0 0.0
2017-Nov-18 20:28N 51°17' E 004°20'0 0.0
2017-Nov-18 19:58N 51°17' E 004°20'0 0.0
2017-Nov-18 19:28N 51°17' E 004°20'0 0.0
2017-Nov-18 18:58N 51°17' E 004°20'0 0.0
2017-Nov-18 18:28N 51°17' E 004°20'0 0.0
2017-Nov-18 17:58N 51°17' E 004°20'0 0.0
2017-Nov-18 17:25N 51°17' E 004°20'0 0.0
2017-Nov-18 16:55N 51°17' E 004°20'0 0.0
2017-Nov-18 16:28N 51°17' E 004°20'0 0.0
2017-Nov-18 15:58N 51°17' E 004°20'0 0.0
2017-Nov-18 15:28N 51°17' E 004°20'0 0.0
2017-Nov-18 14:58N 51°17' E 004°20'0 0.0
2017-Nov-18 14:25N 51°17' E 004°20'0 0.0
2017-Nov-18 13:55N 51°17' E 004°20'0 0.0
2017-Nov-18 13:28N 51°17' E 004°20'0 0.0
2017-Nov-18 12:58N 51°17' E 004°20'0 0.0
2017-Nov-18 12:28N 51°17' E 004°20'0 0.0
2017-Nov-18 11:58N 51°17' E 004°20'0 0.0
2017-Nov-18 11:28N 51°17' E 004°20'0 0.0
2017-Nov-18 10:58N 51°17' E 004°20'0 0.0
2017-Nov-18 10:28N 51°17' E 004°20'0 0.0
2017-Nov-18 09:58N 51°17' E 004°20'0 0.0
2017-Nov-18 09:19N 51°17' E 004°20'0 0.0
2017-Nov-18 08:58N 51°17' E 004°20'0 0.0
2017-Nov-18 08:28N 51°17' E 004°20'0 0.0
2017-Nov-18 07:58N 51°17' E 004°20'0 0.0
2017-Nov-18 07:22N 51°17' E 004°20'0 0.0
2017-Nov-18 06:58N 51°17' E 004°20'0 0.1
2017-Nov-18 06:30N 51°17' E 004°20'2 3.1
2017-Nov-18 06:00N 51°15' E 004°22'0 0.0
2017-Nov-18 05:30N 51°15' E 004°22'0 0.0
2017-Nov-18 05:00N 51°15' E 004°22'0 0.0
2017-Nov-18 04:30N 51°15' E 004°22'0 0.0
2017-Nov-18 04:00N 51°15' E 004°22'0 0.0
2017-Nov-18 03:30N 51°15' E 004°22'0 0.0
2017-Nov-18 02:51N 51°15' E 004°22'0 0.0
2017-Nov-18 02:27N 51°15' E 004°22'0 0.0
2017-Nov-18 02:00N 51°15' E 004°22'0 0.0
2017-Nov-18 01:30N 51°15' E 004°22'0 0.0
2017-Nov-18 00:57N 51°15' E 004°22'0 0.0
2017-Nov-18 00:24N 51°15' E 004°22'0 0.0
2017-Nov-17 23:57N 51°15' E 004°22'0 0.0
2017-Nov-17 23:30N 51°15' E 004°22'0 0.0
2017-Nov-17 23:00N 51°15' E 004°22'0 0.0
2017-Nov-17 22:21N 51°15' E 004°22'0 0.0
2017-Nov-17 22:00N 51°15' E 004°22'0 0.0
2017-Nov-17 21:27N 51°15' E 004°22'0 0.0
2017-Nov-17 20:57N 51°15' E 004°22'0 0.0
2017-Nov-17 20:30N 51°15' E 004°22'0 0.0
2017-Nov-17 20:00N 51°15' E 004°22'0 0.0
2017-Nov-17 19:30N 51°15' E 004°22'0 0.0
2017-Nov-17 18:57N 51°15' E 004°22'0 0.0
2017-Nov-17 18:30N 51°15' E 004°22'0 0.0
2017-Nov-17 18:00N 51°15' E 004°22'0 0.0
2017-Nov-17 17:30N 51°15' E 004°22'0 0.0
2017-Nov-17 17:00N 51°15' E 004°22'0 0.0
2017-Nov-17 16:30N 51°15' E 004°22'0 0.0
2017-Nov-17 16:00N 51°15' E 004°22'2 3.8
2017-Nov-17 15:31N 51°17' E 004°20'4 8.0
2017-Nov-17 15:01N 51°21' E 004°17'0 0.3
2017-Nov-17 14:30N 51°21' E 004°17'0 0.0
2017-Nov-17 14:00N 51°21' E 004°17'1 1.1
2017-Nov-17 13:30N 51°21' E 004°16'3 6.4
2017-Nov-17 13:01N 51°23' E 004°13'612.6
2017-Nov-17 12:30N 51°23' E 004°03'4 7.3
2017-Nov-17 12:00N 51°23' E 003°57'713.9
2017-Nov-17 11:30N 51°22' E 003°46'713.1
2017-Nov-17 11:00N 51°26' E 003°38'4 7.8
2017-Nov-17 10:30N 51°25' E 003°32'510.9
2017-Nov-17 10:00N 51°24' E 003°24'713.5
2017-Nov-17 09:30N 51°24' E 003°13'612.7
2017-Nov-17 09:00N 51°24' E 003°03'611.7
2017-Nov-17 08:30N 51°22' E 002°54'611.6
2017-Nov-17 08:00N 51°21' E 002°45'4 8.7
2017-Nov-17 07:30N 51°22' E 002°38'4 7.6
2017-Nov-17 07:00N 51°22' E 002°32'510.2
2017-Nov-17 06:30N 51°20' E 002°24'510.6
2017-Nov-17 06:00N 51°18' E 002°17'510.9
2017-Nov-17 05:30N 51°15' E 002°09'510.9
2017-Nov-17 05:00N 51°13' E 002°01'510.8
2017-Nov-17 04:30N 51°10' E 001°54'510.3
2017-Nov-17 04:00N 51°07' E 001°47'510.5
2017-Nov-17 03:30N 51°03' E 001°42'510.9
2017-Nov-17 03:00N 50°59' E 001°35'611.4
2017-Nov-17 02:30N 50°55' E 001°29'6611.5
2017-Nov-16 20:48N 50°20' E 000°02'414.5
2017-Nov-16 20:30N 50°19' W 000°05'10014.2
2017-Nov-16 13:26N 50°11' W 002°42'611.4
2017-Nov-16 12:52N 50°10' W 002°51'411.2
2017-Nov-16 12:30N 50°08' W 002°57'611.4
2017-Nov-16 12:00N 50°06' W 003°05'711.5
2017-Nov-16 11:24N 50°03' W 003°15'511.5
2017-Nov-16 11:00N 50°01' W 003°22'611.7
2017-Nov-16 10:30N 49°59' W 003°30'611.9
2017-Nov-16 10:00N 49°57' W 003°39'1112.0
2017-Nov-16 09:07N 49°56' W 003°55'112.4
2017-Nov-16 09:00N 49°56' W 003°58'1012.4
2017-Nov-16 08:10N 49°54' W 004°13'612.7
2017-Nov-16 07:41N 49°53' W 004°23'212.7
2017-Nov-16 07:30N 49°53' W 004°27'1312.9
2017-Nov-16 06:29N 49°51' W 004°47'613.3
2017-Nov-16 06:00N 49°50' W 004°56'913.6
2017-Nov-16 05:20N 49°50' W 005°11'3312.4
2017-Nov-16 02:40N 49°55' W 006°01'4011.1
2017-Nov-15 23:05N 50°32' W 005°42'112.7
2017-Nov-15 22:59N 50°33' W 005°40'612.8
2017-Nov-15 22:30N 50°37' W 005°33'713.0
2017-Nov-15 22:00N 50°41' W 005°24'713.3
2017-Nov-15 21:30N 50°46' W 005°17'713.5
2017-Nov-15 21:00N 50°50' W 005°08'713.6
2017-Nov-15 20:30N 50°54' W 005°00'713.7
2017-Nov-15 20:00N 50°59' W 004°52'714.0
2017-Nov-15 19:30N 51°03' W 004°44'714.5
2017-Nov-15 19:01N 51°08' W 004°35'714.4
2017-Nov-15 18:30N 51°13' W 004°26'714.3
2017-Nov-15 18:00N 51°17' W 004°17'1613.1
2017-Nov-15 16:46N 51°20' W 003°52'812.0
2017-Nov-15 16:09N 51°21' W 003°40'211.5
2017-Nov-15 15:59N 51°21' W 003°37'1410.5
2017-Nov-15 14:41N 51°22' W 003°15'2 0.1
2017-Nov-15 03:22N 51°24' W 003°16'1 2.6
2017-Nov-15 02:55N 51°23' W 003°14'6 6.7
2017-Nov-15 02:06N 51°19' W 003°20'0 0.0
2017-Nov-15 00:57N 51°19' W 003°20'0 0.0
2017-Nov-15 00:27N 51°19' W 003°20'  
Track history (hours):
 
Tides and Currents Weather Stations Pressure Air Temp Water Temp Dewpoint Dewpoint Depression Visibility Wind Speed Wind Dir Waves Ship Positions

Stolt Sanderling

Last reported at 2017-Nov-24 23:57 UTC. Time now 2017-Nov-25 00:08 UTC.
Position N 52°58' E 001°48'.

Length 91 m; draft 5.1 m.

Type: Tanker. MMSI: 235095972.

Date/timePositionNaut miles runAvg speedWind from/ knotsBaromVisibWave heightAir tempDewpointWater temp
2017-Nov-24 23:57N 52°58' E 001°48'714.6
2017-Nov-24 23:30N 53°01' E 001°38'714.6
2017-Nov-24 23:00N 53°06' E 001°29'6012.2
2017-Nov-24 18:06N 53°35' E 000°02'111.9
2017-Nov-24 17:59N 53°35' W 000°01'611.6
2017-Nov-24 17:30N 53°38' W 000°09'1 2.2
2017-Nov-24 17:00N 53°38' W 000°11'0 0.0
2017-Nov-24 04:41N 53°38' W 000°11'0 0.8
2017-Nov-24 04:28N 53°38' W 000°11'0 0.3
2017-Nov-24 04:00N 53°38' W 000°11'0 0.0
2017-Nov-24 03:30N 53°38' W 000°11'0 0.0
2017-Nov-24 03:00N 53°38' W 000°11'0 0.0
2017-Nov-24 02:30N 53°38' W 000°11'0 0.0
2017-Nov-23 13:13N 53°38' W 000°11'0 0.8
2017-Nov-23 13:00N 53°38' W 000°11'2 3.9
2017-Nov-23 12:30N 53°38' W 000°08'4 8.7
2017-Nov-23 12:00N 53°36' W 000°01'54 8.6
2017-Nov-23 05:39N 53°12' E 001°21'213.1
2017-Nov-23 05:30N 53°10' E 001°23'713.6
2017-Nov-23 05:00N 53°06' E 001°31'713.8
2017-Nov-23 04:30N 53°02' E 001°40'713.6
2017-Nov-23 04:00N 52°59' E 001°51'713.2
2017-Nov-23 03:30N 52°56' E 002°00'7911.3
2017-Nov-22 20:33N 52°05' E 003°40'311.1
2017-Nov-22 20:15N 52°05' E 003°45'311.7
2017-Nov-22 19:58N 52°04' E 003°51'4 9.4
2017-Nov-22 19:30N 52°02' E 003°57'  
2017-Nov-20 00:31N 51°05' E 004°21'0 0.0
2017-Nov-19 22:55N 51°05' E 004°21'0 0.0
2017-Nov-19 21:43N 51°05' E 004°21'0 0.0
2017-Nov-19 21:25N 51°05' E 004°21'0 0.0
2017-Nov-19 20:58N 51°05' E 004°21'0 0.0
2017-Nov-19 17:31N 51°05' E 004°21'0 0.0
2017-Nov-19 12:16N 51°05' E 004°21'0 0.0
2017-Nov-19 02:43N 51°05' E 004°21'0 0.0
2017-Nov-19 02:29N 51°05' E 004°21'2 3.4
2017-Nov-19 02:00N 51°06' E 004°19'1 2.0
2017-Nov-19 01:30N 51°07' E 004°18'2 3.9
2017-Nov-19 01:00N 51°09' E 004°20'5 9.4
2017-Nov-19 00:30N 51°13' E 004°23'4 8.3
2017-Nov-19 00:00N 51°15' E 004°18'2 3.5
2017-Nov-18 23:31N 51°17' E 004°20'0 0.6
2017-Nov-18 23:00N 51°17' E 004°20'0 0.1
2017-Nov-18 22:28N 51°17' E 004°20'0 0.0
2017-Nov-18 21:58N 51°17' E 004°20'0 0.0
2017-Nov-18 21:25N 51°17' E 004°20'0 0.0
2017-Nov-18 20:58N 51°17' E 004°20'0 0.0
2017-Nov-18 20:28N 51°17' E 004°20'0 0.0
2017-Nov-18 19:58N 51°17' E 004°20'0 0.0
2017-Nov-18 19:28N 51°17' E 004°20'0 0.0
2017-Nov-18 18:58N 51°17' E 004°20'0 0.0
2017-Nov-18 18:28N 51°17' E 004°20'0 0.0
2017-Nov-18 17:58N 51°17' E 004°20'0 0.0
2017-Nov-18 17:25N 51°17' E 004°20'0 0.0
2017-Nov-18 16:55N 51°17' E 004°20'0 0.0
2017-Nov-18 16:28N 51°17' E 004°20'0 0.0
2017-Nov-18 15:58N 51°17' E 004°20'0 0.0
2017-Nov-18 15:28N 51°17' E 004°20'0 0.0
2017-Nov-18 14:58N 51°17' E 004°20'0 0.0
2017-Nov-18 14:25N 51°17' E 004°20'0 0.0
2017-Nov-18 13:55N 51°17' E 004°20'0 0.0
2017-Nov-18 13:28N 51°17' E 004°20'0 0.0
2017-Nov-18 12:58N 51°17' E 004°20'0 0.0
2017-Nov-18 12:28N 51°17' E 004°20'0 0.0
2017-Nov-18 11:58N 51°17' E 004°20'0 0.0
2017-Nov-18 11:28N 51°17' E 004°20'0 0.0
2017-Nov-18 10:58N 51°17' E 004°20'0 0.0
2017-Nov-18 10:28N 51°17' E 004°20'0 0.0
2017-Nov-18 09:58N 51°17' E 004°20'0 0.0
2017-Nov-18 09:19N 51°17' E 004°20'0 0.0
2017-Nov-18 08:58N 51°17' E 004°20'0 0.0
2017-Nov-18 08:28N 51°17' E 004°20'0 0.0
2017-Nov-18 07:58N 51°17' E 004°20'0 0.0
2017-Nov-18 07:22N 51°17' E 004°20'0 0.0
2017-Nov-18 06:58N 51°17' E 004°20'0 0.1
2017-Nov-18 06:30N 51°17' E 004°20'2 3.1
2017-Nov-18 06:00N 51°15' E 004°22'0 0.0
2017-Nov-18 05:30N 51°15' E 004°22'0 0.0
2017-Nov-18 05:00N 51°15' E 004°22'0 0.0
2017-Nov-18 04:30N 51°15' E 004°22'0 0.0
2017-Nov-18 04:00N 51°15' E 004°22'0 0.0
2017-Nov-18 03:30N 51°15' E 004°22'0 0.0
2017-Nov-18 02:51N 51°15' E 004°22'0 0.0
2017-Nov-18 02:27N 51°15' E 004°22'0 0.0
2017-Nov-18 02:00N 51°15' E 004°22'0 0.0
2017-Nov-18 01:30N 51°15' E 004°22'0 0.0
2017-Nov-18 00:57N 51°15' E 004°22'0 0.0
2017-Nov-18 00:24N 51°15' E 004°22'0 0.0
2017-Nov-17 23:57N 51°15' E 004°22'0 0.0
2017-Nov-17 23:30N 51°15' E 004°22'0 0.0
2017-Nov-17 23:00N 51°15' E 004°22'0 0.0
2017-Nov-17 22:21N 51°15' E 004°22'0 0.0
2017-Nov-17 22:00N 51°15' E 004°22'0 0.0
2017-Nov-17 21:27N 51°15' E 004°22'0 0.0
2017-Nov-17 20:57N 51°15' E 004°22'0 0.0
2017-Nov-17 20:30N 51°15' E 004°22'0 0.0
2017-Nov-17 20:00N 51°15' E 004°22'0 0.0
2017-Nov-17 19:30N 51°15' E 004°22'0 0.0
2017-Nov-17 18:57N 51°15' E 004°22'0 0.0
2017-Nov-17 18:30N 51°15' E 004°22'0 0.0
2017-Nov-17 18:00N 51°15' E 004°22'0 0.0
2017-Nov-17 17:30N 51°15' E 004°22'0 0.0
2017-Nov-17 17:00N 51°15' E 004°22'0 0.0
2017-Nov-17 16:30N 51°15' E 004°22'0 0.0
2017-Nov-17 16:00N 51°15' E 004°22'2 3.8
2017-Nov-17 15:31N 51°17' E 004°20'4 8.0
2017-Nov-17 15:01N 51°21' E 004°17'0 0.3
2017-Nov-17 14:30N 51°21' E 004°17'0 0.0
2017-Nov-17 14:00N 51°21' E 004°17'1 1.1
2017-Nov-17 13:30N 51°21' E 004°16'3 6.4
2017-Nov-17 13:01N 51°23' E 004°13'612.6
2017-Nov-17 12:30N 51°23' E 004°03'4 7.3
2017-Nov-17 12:00N 51°23' E 003°57'713.9
2017-Nov-17 11:30N 51°22' E 003°46'713.1
2017-Nov-17 11:00N 51°26' E 003°38'4 7.8
2017-Nov-17 10:30N 51°25' E 003°32'510.9
2017-Nov-17 10:00N 51°24' E 003°24'713.5
2017-Nov-17 09:30N 51°24' E 003°13'612.7
2017-Nov-17 09:00N 51°24' E 003°03'611.7
2017-Nov-17 08:30N 51°22' E 002°54'611.6
2017-Nov-17 08:00N 51°21' E 002°45'4 8.7
2017-Nov-17 07:30N 51°22' E 002°38'4 7.6
2017-Nov-17 07:00N 51°22' E 002°32'510.2
2017-Nov-17 06:30N 51°20' E 002°24'510.6
2017-Nov-17 06:00N 51°18' E 002°17'510.9
2017-Nov-17 05:30N 51°15' E 002°09'510.9
2017-Nov-17 05:00N 51°13' E 002°01'510.8
2017-Nov-17 04:30N 51°10' E 001°54'510.3
2017-Nov-17 04:00N 51°07' E 001°47'510.5
2017-Nov-17 03:30N 51°03' E 001°42'510.9
2017-Nov-17 03:00N 50°59' E 001°35'611.4
2017-Nov-17 02:30N 50°55' E 001°29'6611.5
2017-Nov-16 20:48N 50°20' E 000°02'414.5
2017-Nov-16 20:30N 50°19' W 000°05'10014.2
2017-Nov-16 13:26N 50°11' W 002°42'611.4
2017-Nov-16 12:52N 50°10' W 002°51'411.2
2017-Nov-16 12:30N 50°08' W 002°57'611.4
2017-Nov-16 12:00N 50°06' W 003°05'711.5
2017-Nov-16 11:24N 50°03' W 003°15'511.5
2017-Nov-16 11:00N 50°01' W 003°22'611.7
2017-Nov-16 10:30N 49°59' W 003°30'611.9
2017-Nov-16 10:00N 49°57' W 003°39'1112.0
2017-Nov-16 09:07N 49°56' W 003°55'112.4
2017-Nov-16 09:00N 49°56' W 003°58'1012.4
2017-Nov-16 08:10N 49°54' W 004°13'612.7
2017-Nov-16 07:41N 49°53' W 004°23'212.7
2017-Nov-16 07:30N 49°53' W 004°27'1312.9
2017-Nov-16 06:29N 49°51' W 004°47'613.3
2017-Nov-16 06:00N 49°50' W 004°56'913.6
2017-Nov-16 05:20N 49°50' W 005°11'3312.4
2017-Nov-16 02:40N 49°55' W 006°01'4011.1
2017-Nov-15 23:05N 50°32' W 005°42'112.7
2017-Nov-15 22:59N 50°33' W 005°40'612.8
2017-Nov-15 22:30N 50°37' W 005°33'713.0
2017-Nov-15 22:00N 50°41' W 005°24'713.3
2017-Nov-15 21:30N 50°46' W 005°17'713.5
2017-Nov-15 21:00N 50°50' W 005°08'713.6
2017-Nov-15 20:30N 50°54' W 005°00'713.7
2017-Nov-15 20:00N 50°59' W 004°52'714.0
2017-Nov-15 19:30N 51°03' W 004°44'714.5
2017-Nov-15 19:01N 51°08' W 004°35'714.4
2017-Nov-15 18:30N 51°13' W 004°26'714.3
2017-Nov-15 18:00N 51°17' W 004°17'1613.1
2017-Nov-15 16:46N 51°20' W 003°52'812.0
2017-Nov-15 16:09N 51°21' W 003°40'211.5
2017-Nov-15 15:59N 51°21' W 003°37'1410.5
2017-Nov-15 14:41N 51°22' W 003°15'2 0.1
2017-Nov-15 03:22N 51°24' W 003°16'1 2.6
2017-Nov-15 02:55N 51°23' W 003°14'6 6.7
2017-Nov-15 02:06N 51°19' W 003°20'0 0.0
2017-Nov-15 00:57N 51°19' W 003°20'0 0.0
2017-Nov-15 00:27N 51°19' W 003°20'  

Dump ship's entire track history